createdAt,value
2018-05-17T00:01:21.867Z,60.40
2018-05-17T00:03:54.128Z,59.50
2018-05-17T00:06:22.917Z,59.40
2018-05-17T00:08:50.686Z,59.50
2018-05-17T00:11:18.964Z,59.60
2018-05-17T00:13:46.912Z,59.60
2018-05-17T00:16:15.444Z,59.60
2018-05-17T00:18:44.292Z,59.50
2018-05-17T00:21:11.931Z,59.60
2018-05-17T00:23:39.543Z,59.70
2018-05-17T00:26:07.172Z,59.50
2018-05-17T00:28:35.572Z,59.60
2018-05-17T00:31:03.834Z,59.50
2018-05-17T00:33:31.462Z,59.50
2018-05-17T00:36:00.673Z,59.50
2018-05-17T00:38:28.872Z,59.40
2018-05-17T00:40:57.288Z,59.60
2018-05-17T00:43:25.903Z,60.40
2018-05-17T00:45:54.720Z,59.60
2018-05-17T00:48:23.167Z,59.60
2018-05-17T00:50:51.621Z,59.60
2018-05-17T00:53:31.186Z,59.70
2018-05-17T00:55:58.919Z,59.80
2018-05-17T00:58:26.503Z,59.70
2018-05-17T01:00:55.395Z,59.70
2018-05-17T01:03:23.805Z,59.80
2018-05-17T01:05:52.206Z,60.00
2018-05-17T01:08:21.053Z,59.70
2018-05-17T01:10:50.150Z,59.70
2018-05-17T01:13:19.505Z,59.70
2018-05-17T01:15:48.016Z,59.60
2018-05-17T01:18:16.066Z,59.70
2018-05-17T01:20:46.339Z,59.60
2018-05-17T01:23:13.961Z,59.50
2018-05-17T01:25:41.632Z,59.60
2018-05-17T01:28:09.234Z,59.70
2018-05-17T01:30:36.866Z,59.70
2018-05-17T01:33:04.651Z,59.70
2018-05-17T01:35:32.352Z,59.70
2018-05-17T01:38:12.597Z,59.70
2018-05-17T01:40:40.246Z,59.60
2018-05-17T01:43:07.858Z,59.70
2018-05-17T01:45:35.485Z,59.60
2018-05-17T01:48:03.148Z,59.70
2018-05-17T01:50:32.424Z,59.60
2018-05-17T01:53:01.339Z,59.60
2018-05-17T01:55:28.978Z,59.80
2018-05-17T01:57:57.836Z,59.60
2018-05-17T02:00:25.870Z,59.50
2018-05-17T02:02:53.510Z,59.30
2018-05-17T02:05:22.588Z,59.20
2018-05-17T02:07:51.886Z,59.20
2018-05-17T02:10:23.623Z,59.20
2018-05-17T02:12:52.745Z,59.10
2018-05-17T02:15:24.958Z,59.10
2018-05-17T02:17:52.867Z,58.90
2018-05-17T02:20:21.143Z,59.00
2018-05-17T02:22:50.539Z,59.60
2018-05-17T02:25:23.778Z,59.10
2018-05-17T02:27:53.681Z,59.10
2018-05-17T02:30:25.449Z,59.00
2018-05-17T02:32:53.081Z,59.10
2018-05-17T02:35:22.060Z,59.10
2018-05-17T02:37:50.588Z,59.20
2018-05-17T02:40:21.611Z,59.50
2018-05-17T02:42:53.419Z,59.40
2018-05-17T02:45:21.064Z,59.50
2018-05-17T02:47:50.435Z,60.60
2018-05-17T02:50:22.069Z,60.50
2018-05-17T02:52:49.733Z,60.50
2018-05-17T02:55:17.777Z,60.60
2018-05-17T02:57:54.317Z,60.40
2018-05-17T03:00:29.985Z,60.60
2018-05-17T03:02:57.692Z,60.50
2018-05-17T03:05:25.350Z,60.70
2018-05-17T03:07:53.084Z,60.80
2018-05-17T03:10:21.976Z,60.70
2018-05-17T03:12:51.040Z,60.80
2018-05-17T03:15:21.805Z,60.60
2018-05-17T03:20:26.003Z,60.70
2018-05-17T03:22:53.690Z,60.70
2018-05-17T03:25:24.150Z,60.80
2018-05-17T03:27:52.659Z,60.60
2018-05-17T03:30:21.531Z,60.20
2018-05-17T03:32:51.494Z,60.20
2018-05-17T03:35:20.907Z,60.10
2018-05-17T03:37:48.975Z,60.30
2018-05-17T03:40:17.355Z,60.50
2018-05-17T03:42:45.193Z,60.40
2018-05-17T03:45:12.817Z,60.60
2018-05-17T03:47:41.258Z,60.90
2018-05-17T03:50:09.015Z,60.70
2018-05-17T03:52:36.660Z,60.60
2018-05-17T03:55:04.360Z,61.00
2018-05-17T03:57:32.802Z,61.20
2018-05-17T04:00:02.457Z,61.30
2018-05-17T04:02:42.658Z,61.30
2018-05-17T04:05:22.396Z,61.20
2018-05-17T04:07:50.165Z,61.20
2018-05-17T04:10:19.501Z,61.40
2018-05-17T04:12:49.478Z,61.20
2018-05-17T04:15:19.080Z,61.20
2018-05-17T04:17:51.235Z,61.60
2018-05-17T04:20:20.966Z,62.30
2018-05-17T04:22:56.987Z,61.30
2018-05-17T04:25:24.742Z,61.30
2018-05-17T04:27:53.523Z,61.20
2018-05-17T04:30:22.012Z,61.50
2018-05-17T04:32:53.443Z,61.30
2018-05-17T04:35:21.214Z,61.30
2018-05-17T04:37:49.729Z,61.10
2018-05-17T04:42:55.186Z,61.20
2018-05-17T04:45:25.206Z,61.20
2018-05-17T04:47:52.897Z,61.30
2018-05-17T04:50:21.291Z,61.30
2018-05-17T04:52:49.854Z,61.20
2018-05-17T04:55:18.577Z,61.10
2018-05-17T04:57:49.625Z,61.00
2018-05-17T05:00:20.193Z,61.10
2018-05-17T05:02:48.302Z,61.00
2018-05-17T05:05:17.719Z,60.90
2018-05-17T05:07:46.567Z,61.00
2018-05-17T05:10:15.082Z,60.80
2018-05-17T05:12:42.688Z,60.50
2018-05-17T05:15:10.371Z,60.60
2018-05-17T05:17:39.108Z,60.40
2018-05-17T05:20:08.166Z,60.00
2018-05-17T05:22:35.937Z,59.90
2018-05-17T05:25:03.525Z,59.70
2018-05-17T05:27:31.195Z,59.60
2018-05-17T05:29:59.298Z,59.40
2018-05-17T05:32:27.709Z,59.30
2018-05-17T05:34:55.343Z,59.20
2018-05-17T05:37:22.929Z,59.10
2018-05-17T05:39:52.148Z,59.10
2018-05-17T05:42:20.651Z,59.00
2018-05-17T05:44:48.285Z,59.00
2018-05-17T05:47:17.242Z,59.00
2018-05-17T05:49:45.295Z,58.80
2018-05-17T05:52:12.975Z,58.70
2018-05-17T05:54:41.798Z,58.70
2018-05-17T05:57:09.393Z,58.70
2018-05-17T05:59:36.985Z,58.50
2018-05-17T06:02:04.853Z,58.40
2018-05-17T06:04:32.434Z,58.40
2018-05-17T06:07:00.148Z,58.20
2018-05-17T06:09:28.465Z,58.10
2018-05-17T06:11:56.118Z,58.20
2018-05-17T06:14:23.784Z,58.10
2018-05-17T06:16:53.118Z,58.00
2018-05-17T06:19:22.843Z,57.90
2018-05-17T06:21:52.034Z,58.00
2018-05-17T06:24:19.941Z,58.00
2018-05-17T06:26:48.708Z,58.00
2018-05-17T06:29:17.296Z,57.70
2018-05-17T06:31:52.877Z,57.50
2018-05-17T06:34:23.130Z,57.50
2018-05-17T06:36:51.528Z,57.50
2018-05-17T06:39:19.377Z,57.70
2018-05-17T06:44:55.992Z,57.10
2018-05-17T06:47:23.675Z,56.70
2018-05-17T06:49:52.439Z,56.70
2018-05-17T06:52:21.960Z,56.60
2018-05-17T06:54:50.544Z,56.40
2018-05-17T06:57:19.101Z,56.50
2018-05-17T06:59:49.669Z,56.50
2018-05-17T07:02:17.510Z,56.00
2018-05-17T07:04:46.391Z,56.10
2018-05-17T07:07:13.979Z,55.70
2018-05-17T07:09:41.606Z,56.00
2018-05-17T07:12:09.256Z,56.00
2018-05-17T07:14:36.871Z,55.70
2018-05-17T07:17:04.492Z,55.70
2018-05-17T07:19:32.159Z,55.70
2018-05-17T07:21:59.793Z,55.70
2018-05-17T07:24:27.402Z,54.40
2018-05-17T07:26:55.138Z,54.60
2018-05-17T07:29:25.079Z,54.10
2018-05-17T07:31:52.743Z,53.20
2018-05-17T07:34:22.129Z,53.50
2018-05-17T07:36:51.176Z,53.50
2018-05-17T07:39:19.896Z,53.50
2018-05-17T07:41:49.472Z,53.20
2018-05-17T07:44:18.579Z,53.50
2018-05-17T07:46:52.824Z,53.90
2018-05-17T07:49:21.445Z,53.30
2018-05-17T07:51:52.672Z,53.30
2018-05-17T07:54:23.515Z,53.70
2018-05-17T07:56:51.510Z,53.60
2018-05-17T08:01:55.342Z,53.50
2018-05-17T08:04:22.989Z,53.10
2018-05-17T08:06:51.988Z,53.50
2018-05-17T08:09:22.768Z,52.90
2018-05-17T08:11:51.307Z,53.50
2018-05-17T08:14:19.061Z,53.50
2018-05-17T08:16:51.370Z,54.00
2018-05-17T08:19:22.469Z,54.10
2018-05-17T08:21:53.606Z,54.50
2018-05-17T08:24:23.379Z,53.30
2018-05-17T08:26:51.739Z,53.20
2018-05-17T08:29:19.822Z,54.00
2018-05-17T08:34:22.129Z,53.20
2018-05-17T08:36:50.709Z,52.80
2018-05-17T08:39:22.531Z,52.90
2018-05-17T08:41:52.064Z,53.10
2018-05-17T08:44:21.599Z,53.30
2018-05-17T08:46:50.948Z,52.40
2018-05-17T08:49:19.448Z,52.30
2018-05-17T08:51:48.346Z,52.10
2018-05-17T08:54:17.426Z,51.90
2018-05-17T08:56:45.946Z,52.20
2018-05-17T08:59:13.789Z,51.60
2018-05-17T09:01:42.274Z,51.50
2018-05-17T09:04:12.999Z,51.90
2018-05-17T09:09:19.734Z,51.30
2018-05-17T09:11:52.912Z,51.10
2018-05-17T09:14:21.780Z,50.40
2018-05-17T09:16:51.154Z,51.70
2018-05-17T09:19:19.157Z,51.70
2018-05-17T09:21:47.748Z,51.70
2018-05-17T09:24:15.582Z,51.10
2018-05-17T09:26:43.184Z,50.40
2018-05-17T09:29:11.677Z,50.50
2018-05-17T09:31:40.297Z,50.50
2018-05-17T09:34:08.662Z,49.90
2018-05-17T09:36:39.336Z,50.50
2018-05-17T09:39:09.289Z,50.30
2018-05-17T09:41:37.215Z,50.20
2018-05-17T09:44:05.911Z,50.00
2018-05-17T09:46:35.814Z,49.60
2018-05-17T09:49:03.554Z,49.70
2018-05-17T09:51:32.522Z,49.30
2018-05-17T09:54:04.115Z,49.40
2018-05-17T09:56:35.294Z,49.80
2018-05-17T09:59:04.157Z,49.50
2018-05-17T10:01:31.895Z,48.90
2018-05-17T10:03:59.803Z,49.50
2018-05-17T10:06:28.089Z,48.60
2018-05-17T10:08:56.703Z,48.80
2018-05-17T10:11:24.276Z,48.80
2018-05-17T10:13:52.011Z,47.40
2018-05-17T10:16:21.463Z,48.10
2018-05-17T10:18:50.405Z,49.70
2018-05-17T10:21:22.405Z,49.10
2018-05-17T10:23:51.327Z,49.60
2018-05-17T10:26:19.903Z,49.50
2018-05-17T10:28:51.037Z,48.70
2018-05-17T10:31:21.806Z,49.10
2018-05-17T10:33:53.595Z,48.40
2018-05-17T10:36:22.622Z,47.50
2018-05-17T10:38:54.760Z,47.90
2018-05-17T10:41:22.405Z,47.70
2018-05-17T10:43:51.641Z,47.40
2018-05-17T10:46:20.352Z,47.90
2018-05-17T10:48:50.844Z,46.10
2018-05-17T10:51:22.391Z,46.00
2018-05-17T10:53:52.208Z,46.90
2018-05-17T10:56:21.988Z,46.80
2018-05-17T10:58:52.838Z,47.70
2018-05-17T11:01:21.096Z,47.50
2018-05-17T11:03:56.454Z,47.40
2018-05-17T11:06:24.187Z,46.30
2018-05-17T11:08:52.482Z,46.90
2018-05-17T11:11:20.294Z,46.90
2018-05-17T11:13:48.148Z,46.80
2018-05-17T11:16:17.626Z,46.80
2018-05-17T11:18:46.676Z,46.80
2018-05-17T11:21:15.234Z,46.80
2018-05-17T11:23:42.950Z,46.70
2018-05-17T11:26:10.586Z,46.80
2018-05-17T11:28:39.193Z,47.50
2018-05-17T11:31:07.899Z,46.50
2018-05-17T11:33:38.034Z,45.30
2018-05-17T11:36:06.534Z,46.90
2018-05-17T11:38:35.008Z,46.90
2018-05-17T11:43:37.352Z,46.30
2018-05-17T11:46:04.985Z,46.30
2018-05-17T11:48:33.611Z,45.50
2018-05-17T11:51:01.999Z,46.20
2018-05-17T11:53:29.619Z,46.10
2018-05-17T11:55:58.482Z,46.00
2018-05-17T11:58:26.172Z,46.30
2018-05-17T12:00:54.436Z,46.10
2018-05-17T12:03:22.157Z,45.90
2018-05-17T12:05:51.354Z,45.10
2018-05-17T12:08:19.056Z,45.50
2018-05-17T12:10:53.759Z,45.00
2018-05-17T12:13:24.355Z,44.50
2018-05-17T12:15:52.612Z,44.60
2018-05-17T12:18:21.538Z,45.10
2018-05-17T12:20:50.711Z,45.10
2018-05-17T12:23:20.955Z,45.00
2018-05-17T12:25:48.705Z,44.60
2018-05-17T12:28:17.763Z,45.10
2018-05-17T12:30:45.451Z,44.10
2018-05-17T12:33:13.590Z,43.30
2018-05-17T12:35:41.696Z,44.10
2018-05-17T12:38:09.347Z,44.60
2018-05-17T12:40:38.409Z,43.20
2018-05-17T12:43:05.986Z,43.00
2018-05-17T12:45:33.605Z,43.20
2018-05-17T12:48:01.252Z,43.90
2018-05-17T12:50:28.917Z,44.10
2018-05-17T12:52:56.510Z,43.50
2018-05-17T12:55:24.898Z,41.80
2018-05-17T12:57:52.546Z,41.70
2018-05-17T13:00:20.224Z,42.70
2018-05-17T13:02:48.403Z,42.70
2018-05-17T13:05:23.264Z,42.70
2018-05-17T13:07:53.417Z,43.10
2018-05-17T13:10:24.904Z,42.70
2018-05-17T13:12:55.153Z,42.80
2018-05-17T13:15:23.537Z,43.50
2018-05-17T13:17:51.233Z,43.50
2018-05-17T13:20:21.474Z,43.10
2018-05-17T13:22:51.187Z,43.30
2018-05-17T13:25:23.538Z,42.60
2018-05-17T13:27:52.111Z,42.70
2018-05-17T13:30:23.033Z,42.30
2018-05-17T13:32:51.464Z,41.70
2018-05-17T13:35:22.801Z,41.70
2018-05-17T13:37:55.549Z,42.20
2018-05-17T13:40:23.925Z,42.60
2018-05-17T13:42:53.727Z,42.40
2018-05-17T13:45:26.540Z,42.00
2018-05-17T13:47:56.878Z,42.30
2018-05-17T13:50:25.408Z,42.30
2018-05-17T13:52:53.149Z,41.70
2018-05-17T13:55:23.525Z,42.00
2018-05-17T13:57:55.220Z,41.00
2018-05-17T14:00:24.251Z,40.80
2018-05-17T14:02:54.207Z,40.90
2018-05-17T14:05:23.023Z,40.80
2018-05-17T14:08:00.695Z,41.40
2018-05-17T14:10:29.121Z,41.80
2018-05-17T14:12:56.727Z,41.50
2018-05-17T14:15:24.886Z,41.70
2018-05-17T14:17:53.362Z,42.00
2018-05-17T14:20:24.985Z,42.20
2018-05-17T14:22:55.011Z,42.20
2018-05-17T14:25:23.533Z,41.20
2018-05-17T14:27:52.530Z,41.70
2018-05-17T14:30:21.901Z,40.80
2018-05-17T14:32:52.433Z,40.70
2018-05-17T14:35:20.419Z,40.90
2018-05-17T14:37:49.858Z,40.60
2018-05-17T14:40:25.109Z,40.70
2018-05-17T14:42:55.011Z,40.80
2018-05-17T14:45:25.689Z,40.50
2018-05-17T14:47:54.773Z,40.70
2018-05-17T14:50:25.268Z,40.70
2018-05-17T14:52:55.158Z,40.30
2018-05-17T14:55:27.054Z,38.70
2018-05-17T14:57:59.149Z,39.20
2018-05-17T15:00:27.812Z,38.80
2018-05-17T15:02:55.904Z,39.40
2018-05-17T15:05:24.561Z,40.40
2018-05-17T15:07:52.894Z,40.40
2018-05-17T15:10:22.668Z,40.30
2018-05-17T15:12:52.514Z,39.40
2018-05-17T15:15:20.328Z,39.80
2018-05-17T15:17:50.682Z,38.80
2018-05-17T15:20:23.501Z,39.10
2018-05-17T15:22:55.919Z,39.80
2018-05-17T15:25:24.448Z,39.50
2018-05-17T15:28:02.652Z,39.40
2018-05-17T15:30:31.793Z,39.80
2018-05-17T15:33:01.069Z,39.20
2018-05-17T15:35:35.597Z,38.60
2018-05-17T15:38:04.542Z,38.80
2018-05-17T15:40:34.062Z,39.00
2018-05-17T15:43:01.706Z,39.00
2018-05-17T15:45:31.406Z,39.00
2018-05-17T15:47:59.802Z,38.70
2018-05-17T15:50:27.408Z,38.70
2018-05-17T15:52:55.460Z,38.90
2018-05-17T15:55:23.137Z,38.30
2018-05-17T15:57:53.394Z,38.40
2018-05-17T16:00:23.008Z,38.50
2018-05-17T16:02:52.824Z,39.20
2018-05-17T16:05:20.576Z,39.20
2018-05-17T16:07:48.277Z,38.80
2018-05-17T16:10:18.049Z,39.20
2018-05-17T16:12:47.272Z,38.80
2018-05-17T16:15:15.291Z,38.90
2018-05-17T16:17:46.100Z,39.00
2018-05-17T16:20:14.402Z,38.70
2018-05-17T16:22:44.949Z,39.10
2018-05-17T16:25:13.666Z,38.30
2018-05-17T16:27:44.719Z,38.70
2018-05-17T16:30:13.053Z,38.80
2018-05-17T16:32:45.342Z,39.40
2018-05-17T16:35:15.042Z,38.80
2018-05-17T16:37:45.357Z,39.10
2018-05-17T16:40:14.001Z,38.80
2018-05-17T16:42:44.924Z,37.70
2018-05-17T16:45:14.198Z,38.50
2018-05-17T16:47:43.636Z,38.20
2018-05-17T16:50:11.337Z,38.20
2018-05-17T16:52:43.705Z,38.30
2018-05-17T16:55:18.059Z,38.20
2018-05-17T16:57:45.916Z,38.10
2018-05-17T17:00:14.322Z,39.10
2018-05-17T17:02:44.141Z,38.20
2018-05-17T17:05:12.971Z,38.50
2018-05-17T17:07:42.741Z,38.40
2018-05-17T17:10:12.880Z,38.50
2018-05-17T17:12:47.094Z,38.40
2018-05-17T17:15:18.316Z,38.10
2018-05-17T17:17:46.227Z,38.40
2018-05-17T17:20:17.929Z,38.50
2018-05-17T17:22:46.553Z,38.50
2018-05-17T17:25:15.728Z,38.20
2018-05-17T17:27:45.000Z,38.00
2018-05-17T17:30:12.875Z,38.40
2018-05-17T17:32:41.175Z,38.50
2018-05-17T17:35:10.129Z,38.90
2018-05-17T17:37:41.562Z,39.20
2018-05-17T17:40:12.434Z,39.10
2018-05-17T17:42:43.599Z,39.70
2018-05-17T17:45:12.957Z,39.90
2018-05-17T17:47:42.097Z,39.80
2018-05-17T17:50:13.555Z,39.80
2018-05-17T17:52:42.442Z,40.00
2018-05-17T17:55:11.307Z,40.00
2018-05-17T17:57:44.339Z,39.80
2018-05-17T18:00:12.981Z,40.00
2018-05-17T18:02:42.493Z,39.80
2018-05-17T18:05:11.846Z,39.80
2018-05-17T18:07:43.859Z,41.40
2018-05-17T18:10:13.635Z,40.50
2018-05-17T18:12:42.373Z,40.80
2018-05-17T18:15:15.994Z,40.90
2018-05-17T18:17:43.960Z,40.90
2018-05-17T18:20:12.540Z,41.50
2018-05-17T18:22:40.168Z,41.80
2018-05-17T18:25:07.788Z,41.50
2018-05-17T18:27:35.448Z,41.40
2018-05-17T18:30:03.058Z,41.40
2018-05-17T18:32:30.733Z,41.60
2018-05-17T18:34:58.698Z,41.80
2018-05-17T18:37:27.534Z,41.80
2018-05-17T18:39:56.645Z,42.20
2018-05-17T18:42:24.465Z,42.10
2018-05-17T18:44:52.061Z,42.70
2018-05-17T18:47:19.703Z,42.80
2018-05-17T18:49:47.317Z,42.90
2018-05-17T18:52:14.954Z,43.10
2018-05-17T18:54:42.552Z,43.10
2018-05-17T18:57:10.932Z,43.80
2018-05-17T18:59:38.875Z,43.70
2018-05-17T19:02:06.504Z,43.90
2018-05-17T19:04:34.107Z,44.10
2018-05-17T19:07:01.758Z,44.20
2018-05-17T19:09:29.381Z,44.40
2018-05-17T19:11:57.514Z,44.60
2018-05-17T19:14:25.883Z,44.80
2018-05-17T19:16:54.603Z,45.00
2018-05-17T19:19:23.129Z,45.00
2018-05-17T19:21:54.117Z,45.10
2018-05-17T19:24:24.776Z,45.20
2018-05-17T19:26:54.059Z,45.50
2018-05-17T19:29:22.318Z,46.10
2018-05-17T19:31:51.839Z,45.80
2018-05-17T19:34:21.447Z,45.80
2018-05-17T19:36:50.116Z,46.30
2018-05-17T19:39:17.733Z,46.30
2018-05-17T19:41:46.160Z,46.60
2018-05-17T19:44:15.158Z,47.10
2018-05-17T19:46:45.672Z,47.50
2018-05-17T19:49:15.670Z,47.50
2018-05-17T19:51:45.800Z,48.40
2018-05-17T19:54:15.755Z,49.30
2018-05-17T19:56:45.972Z,49.90
2018-05-17T19:59:17.638Z,49.90
2018-05-17T20:01:45.340Z,50.30
2018-05-17T20:04:14.371Z,50.70
2018-05-17T20:06:43.583Z,50.80
2018-05-17T20:09:13.046Z,51.20
2018-05-17T20:11:45.637Z,51.60
2018-05-17T20:14:15.226Z,51.80
2018-05-17T20:16:50.742Z,51.70
2018-05-17T20:19:20.183Z,51.90
2018-05-17T20:21:48.020Z,52.40
2018-05-17T20:24:15.660Z,52.20
2018-05-17T20:26:44.653Z,52.30
2018-05-17T20:29:13.306Z,52.80
2018-05-17T20:31:44.558Z,52.80
2018-05-17T20:34:13.481Z,52.90
2018-05-17T20:36:42.287Z,53.00
2018-05-17T20:39:13.433Z,53.10
2018-05-17T20:41:44.752Z,53.40
2018-05-17T20:44:14.677Z,53.20
2018-05-17T20:46:46.244Z,53.30
2018-05-17T20:49:14.303Z,53.20
2018-05-17T20:51:43.299Z,53.20
2018-05-17T20:54:12.152Z,53.20
2018-05-17T20:56:44.893Z,53.20
2018-05-17T20:59:13.390Z,53.40
2018-05-17T21:01:44.074Z,53.60
2018-05-17T21:04:13.138Z,53.50
2018-05-17T21:06:47.005Z,53.30
2018-05-17T21:09:14.851Z,53.30
2018-05-17T21:11:48.310Z,53.40
2018-05-17T21:14:17.457Z,53.40
2018-05-17T21:16:45.173Z,53.40
2018-05-17T21:19:13.888Z,53.40
2018-05-17T21:24:18.857Z,53.50
2018-05-17T21:26:48.025Z,53.60
2018-05-17T21:29:20.175Z,53.80
2018-05-17T21:31:47.814Z,53.80
2018-05-17T21:34:15.506Z,53.90
2018-05-17T21:36:46.726Z,54.70
2018-05-17T21:39:15.563Z,54.20
2018-05-17T21:41:44.549Z,54.20
2018-05-17T21:44:16.301Z,54.40
2018-05-17T21:46:45.627Z,54.20
2018-05-17T21:49:14.247Z,54.10
2018-05-17T21:51:43.942Z,54.30
2018-05-17T21:54:15.727Z,54.30
2018-05-17T21:56:46.959Z,54.20
2018-05-17T21:59:18.142Z,54.40
2018-05-17T22:01:45.758Z,54.50
2018-05-17T22:04:13.523Z,54.80
2018-05-17T22:06:49.912Z,54.70
2018-05-17T22:09:18.378Z,54.80
2018-05-17T22:11:46.078Z,54.80
2018-05-17T22:14:14.527Z,55.20
2018-05-17T22:16:46.083Z,55.10
2018-05-17T22:19:15.064Z,55.00
2018-05-17T22:21:45.520Z,55.10
2018-05-17T22:24:13.968Z,55.30
2018-05-17T22:26:44.687Z,55.30
2018-05-17T22:29:15.920Z,55.20
2018-05-17T22:31:46.227Z,55.50
2018-05-17T22:34:15.325Z,55.60
2018-05-17T22:36:43.927Z,55.40
2018-05-17T22:39:13.043Z,55.80
2018-05-17T22:41:43.267Z,56.10
2018-05-17T22:44:11.759Z,56.00
2018-05-17T22:46:43.516Z,56.00
2018-05-17T22:49:14.259Z,56.30
2018-05-17T22:54:23.037Z,56.30
2018-05-17T22:57:02.404Z,56.30
2018-05-17T22:59:30.659Z,56.20
2018-05-17T23:01:58.851Z,56.20
2018-05-17T23:04:26.467Z,56.30
2018-05-17T23:06:54.141Z,56.20
2018-05-17T23:09:22.968Z,56.20
2018-05-17T23:11:51.494Z,56.30
2018-05-17T23:14:21.196Z,56.30
2018-05-17T23:16:49.813Z,56.30
2018-05-17T23:19:20.707Z,56.50
2018-05-17T23:21:49.115Z,56.50
2018-05-17T23:24:18.398Z,56.90
2018-05-17T23:26:46.957Z,56.80
2018-05-17T23:29:14.670Z,56.80
2018-05-17T23:31:50.450Z,56.90
2018-05-17T23:34:18.142Z,56.90
2018-05-17T23:36:45.778Z,57.20
2018-05-17T23:39:14.111Z,57.20
2018-05-17T23:41:45.852Z,57.20
2018-05-17T23:44:13.875Z,57.80
2018-05-17T23:49:18.025Z,57.50
2018-05-17T23:51:46.465Z,56.70
2018-05-17T23:54:14.160Z,56.80
2018-05-17T23:56:43.384Z,57.00
2018-05-17T23:59:16.211Z,57.00
